createdAt,value
2017-12-15T00:00:35.463Z,3.81
2017-12-15T00:01:35.119Z,3.84
2017-12-15T00:02:35.089Z,3.92
2017-12-15T00:03:35.067Z,3.81
2017-12-15T00:04:35.026Z,3.86
2017-12-15T00:05:35.006Z,3.75
2017-12-15T00:06:34.961Z,3.88
2017-12-15T00:07:34.936Z,3.78
2017-12-15T00:08:34.903Z,3.77
2017-12-15T00:09:34.870Z,3.71
2017-12-15T00:10:34.838Z,3.89
2017-12-15T00:11:34.811Z,3.88
2017-12-15T00:12:34.781Z,3.81
2017-12-15T00:13:34.751Z,3.88
2017-12-15T00:14:34.719Z,3.75
2017-12-15T00:15:34.689Z,3.77
2017-12-15T00:16:34.660Z,3.80
2017-12-15T00:17:34.622Z,3.84
2017-12-15T00:18:34.593Z,3.89
2017-12-15T00:19:34.556Z,3.86
2017-12-15T00:20:34.534Z,3.81
2017-12-15T00:21:34.498Z,3.84
2017-12-15T00:22:34.467Z,3.84
2017-12-15T00:23:34.440Z,3.80
2017-12-15T00:24:34.656Z,3.81
2017-12-15T00:25:34.378Z,3.88
2017-12-15T00:26:34.356Z,3.75
2017-12-15T00:27:34.308Z,3.90
2017-12-15T00:28:34.280Z,3.84
2017-12-15T00:29:34.259Z,3.86
2017-12-15T00:30:34.520Z,3.86
2017-12-15T00:31:34.184Z,3.84
2017-12-15T00:32:34.157Z,3.86
2017-12-15T00:33:34.119Z,3.77
2017-12-15T00:34:34.084Z,3.75
2017-12-15T00:35:34.062Z,3.77
2017-12-15T00:36:34.036Z,3.78
2017-12-15T00:37:33.999Z,3.71
2017-12-15T00:38:34.050Z,3.75
2017-12-15T00:39:33.926Z,3.77
2017-12-15T00:40:33.911Z,3.77
2017-12-15T00:41:33.869Z,3.74
2017-12-15T00:42:34.140Z,3.78
2017-12-15T00:43:33.806Z,3.78
2017-12-15T00:44:33.781Z,3.77
2017-12-15T00:45:33.748Z,3.78
2017-12-15T00:46:33.720Z,3.78
2017-12-15T00:47:33.711Z,3.75
2017-12-15T00:48:33.652Z,3.78
2017-12-15T00:49:33.613Z,3.75
2017-12-15T00:50:33.591Z,3.77
2017-12-15T00:51:33.570Z,3.78
2017-12-15T00:52:33.531Z,3.77
2017-12-15T00:53:33.493Z,3.78
2017-12-15T00:54:33.454Z,3.77
2017-12-15T00:55:33.429Z,3.75
2017-12-15T00:56:33.399Z,3.78
2017-12-15T00:57:33.367Z,3.75
2017-12-15T00:58:33.335Z,3.75
2017-12-15T00:59:33.300Z,3.72
2017-12-15T01:00:33.268Z,3.72
2017-12-15T01:01:33.251Z,3.71
2017-12-15T01:02:33.216Z,3.78
2017-12-15T01:03:33.183Z,3.74
2017-12-15T01:04:33.159Z,3.77
2017-12-15T01:05:33.123Z,3.75
2017-12-15T01:06:33.086Z,3.78
2017-12-15T01:07:33.053Z,3.78
2017-12-15T01:08:33.033Z,3.77
2017-12-15T01:09:32.991Z,3.77
2017-12-15T01:10:32.961Z,3.75
2017-12-15T01:11:32.929Z,3.72
2017-12-15T01:12:32.894Z,3.78
2017-12-15T01:13:32.868Z,3.72
2017-12-15T01:14:32.840Z,3.74
2017-12-15T01:15:32.806Z,3.74
2017-12-15T01:16:32.779Z,3.78
2017-12-15T01:17:33.099Z,3.80
2017-12-15T01:18:32.715Z,3.78
2017-12-15T01:19:32.689Z,3.75
2017-12-15T01:20:32.653Z,3.84
2017-12-15T01:21:32.615Z,3.92
2017-12-15T01:22:32.590Z,3.84
2017-12-15T01:23:32.558Z,3.89
2017-12-15T01:24:32.529Z,3.78
2017-12-15T01:25:32.500Z,3.81
2017-12-15T01:26:32.465Z,3.80
2017-12-15T01:27:32.434Z,3.78
2017-12-15T01:28:32.400Z,3.77
2017-12-15T01:29:32.373Z,3.81
2017-12-15T01:30:32.337Z,3.77
2017-12-15T01:31:32.311Z,3.75
2017-12-15T01:32:32.280Z,3.75
2017-12-15T01:33:32.258Z,3.72
2017-12-15T01:34:32.218Z,3.80
2017-12-15T01:35:32.186Z,3.74
2017-12-15T01:36:32.150Z,3.80
2017-12-15T01:37:32.130Z,3.78
2017-12-15T01:38:32.086Z,3.80
2017-12-15T01:39:32.064Z,3.75
2017-12-15T01:40:32.040Z,3.78
2017-12-15T01:41:31.997Z,3.75
2017-12-15T01:42:31.977Z,3.82
2017-12-15T01:43:31.942Z,3.77
2017-12-15T01:44:31.908Z,3.72
2017-12-15T01:45:31.875Z,3.74
2017-12-15T01:46:31.839Z,3.72
2017-12-15T01:47:32.158Z,3.75
2017-12-15T01:48:31.778Z,3.77
2017-12-15T01:49:31.749Z,3.75
2017-12-15T01:50:31.720Z,3.81
2017-12-15T01:51:31.689Z,3.84
2017-12-15T01:52:31.666Z,3.74
2017-12-15T01:53:31.924Z,3.86
2017-12-15T01:54:31.597Z,3.89
2017-12-15T01:55:31.565Z,3.74
2017-12-15T01:56:31.530Z,3.84
2017-12-15T01:57:31.503Z,3.90
2017-12-15T01:58:31.463Z,3.84
2017-12-15T01:59:31.438Z,3.80
2017-12-15T02:00:31.405Z,3.81
2017-12-15T02:01:31.373Z,3.84
2017-12-15T02:02:31.350Z,3.88
2017-12-15T02:03:31.320Z,3.88
2017-12-15T02:04:31.279Z,3.81
2017-12-15T02:05:31.494Z,3.88
2017-12-15T02:06:31.215Z,3.81
2017-12-15T02:07:31.183Z,3.88
2017-12-15T02:08:31.155Z,3.95
2017-12-15T02:09:31.130Z,3.88
2017-12-15T02:10:31.092Z,3.82
2017-12-15T02:11:31.061Z,3.89
2017-12-15T02:12:31.027Z,3.88
2017-12-15T02:13:31.010Z,3.82
2017-12-15T02:14:30.975Z,3.78
2017-12-15T02:15:30.946Z,3.86
2017-12-15T02:16:30.908Z,3.84
2017-12-15T02:17:30.878Z,3.90
2017-12-15T02:18:30.839Z,3.81
2017-12-15T02:19:30.813Z,3.78
2017-12-15T02:20:30.782Z,3.95
2017-12-15T02:21:30.756Z,3.93
2017-12-15T02:22:30.969Z,3.89
2017-12-15T02:23:30.702Z,3.86
2017-12-15T02:24:30.668Z,3.82
2017-12-15T02:25:30.642Z,3.81
2017-12-15T02:26:30.598Z,3.90
2017-12-15T02:27:30.564Z,3.86
2017-12-15T02:28:30.536Z,3.86
2017-12-15T02:29:30.515Z,3.92
2017-12-15T02:30:30.472Z,3.84
2017-12-15T02:31:30.452Z,3.90
2017-12-15T02:32:30.416Z,3.82
2017-12-15T02:33:30.375Z,3.86
2017-12-15T02:34:30.353Z,3.89
2017-12-15T02:35:30.323Z,3.86
2017-12-15T02:36:30.289Z,3.82
2017-12-15T02:37:30.258Z,3.82
2017-12-15T02:38:30.222Z,3.75
2017-12-15T02:39:30.241Z,3.77
2017-12-15T02:40:30.163Z,3.75
2017-12-15T02:41:30.136Z,3.75
2017-12-15T02:42:30.103Z,3.77
2017-12-15T02:43:30.067Z,3.78
2017-12-15T02:44:30.040Z,3.88
2017-12-15T02:45:30.308Z,3.81
2017-12-15T02:46:29.989Z,3.81
2017-12-15T02:47:29.950Z,3.74
2017-12-15T02:48:29.914Z,3.72
2017-12-15T02:49:29.888Z,3.75
2017-12-15T02:50:29.851Z,3.72
2017-12-15T02:51:30.170Z,3.77
2017-12-15T02:52:29.794Z,3.81
2017-12-15T02:53:29.760Z,3.78
2017-12-15T02:54:29.720Z,3.82
2017-12-15T02:55:29.694Z,3.72
2017-12-15T02:56:29.658Z,3.74
2017-12-15T02:57:29.992Z,3.77
2017-12-15T02:58:29.608Z,3.75
2017-12-15T02:59:29.571Z,3.82
2017-12-15T03:00:29.539Z,3.82
2017-12-15T03:01:29.519Z,3.88
2017-12-15T03:02:29.484Z,3.82
2017-12-15T03:03:29.456Z,3.81
2017-12-15T03:04:29.415Z,3.81
2017-12-15T03:05:29.409Z,3.81
2017-12-15T03:06:29.346Z,3.84
2017-12-15T03:07:29.323Z,3.82
2017-12-15T03:08:29.304Z,3.88
2017-12-15T03:09:29.270Z,3.86
2017-12-15T03:10:29.227Z,3.84
2017-12-15T03:11:29.216Z,3.89
2017-12-15T03:12:29.171Z,3.81
2017-12-15T03:13:29.135Z,3.84
2017-12-15T03:14:29.115Z,3.82
2017-12-15T03:15:29.073Z,3.84
2017-12-15T03:16:29.037Z,3.81
2017-12-15T03:17:29.014Z,3.77
2017-12-15T03:18:28.994Z,3.82
2017-12-15T03:19:28.948Z,3.80
2017-12-15T03:20:28.925Z,3.88
2017-12-15T03:21:28.883Z,3.82
2017-12-15T03:22:28.854Z,3.86
2017-12-15T03:23:28.832Z,3.86
2017-12-15T03:24:28.793Z,3.77
2017-12-15T03:25:28.759Z,3.77
2017-12-15T03:26:28.727Z,3.81
2017-12-15T03:27:28.699Z,3.72
2017-12-15T03:28:28.669Z,3.80
2017-12-15T03:29:28.648Z,3.75
2017-12-15T03:30:28.617Z,3.75
2017-12-15T03:31:28.575Z,3.77
2017-12-15T03:32:28.552Z,3.75
2017-12-15T03:33:28.814Z,3.74
2017-12-15T03:34:28.492Z,3.75
2017-12-15T03:35:28.457Z,3.74
2017-12-15T03:36:28.425Z,3.77
2017-12-15T03:37:28.398Z,3.77
2017-12-15T03:38:28.364Z,3.74
2017-12-15T03:39:28.631Z,3.77
2017-12-15T03:40:28.297Z,3.78
2017-12-15T03:41:28.271Z,3.72
2017-12-15T03:42:28.230Z,3.78
2017-12-15T03:43:28.205Z,3.77
2017-12-15T03:44:28.173Z,3.75
2017-12-15T03:45:28.148Z,3.81
2017-12-15T03:46:28.109Z,3.78
2017-12-15T03:47:28.091Z,3.81
2017-12-15T03:48:28.053Z,3.75
2017-12-15T03:49:28.021Z,3.74
2017-12-15T03:50:27.995Z,3.74
2017-12-15T03:51:27.968Z,3.75
2017-12-15T03:52:27.926Z,3.72
2017-12-15T03:53:27.904Z,3.77
2017-12-15T03:54:27.859Z,3.77
2017-12-15T03:55:27.840Z,3.71
2017-12-15T03:56:27.807Z,3.74
2017-12-15T03:57:27.772Z,3.68
2017-12-15T03:58:27.751Z,3.74
2017-12-15T03:59:27.707Z,3.80
2017-12-15T04:00:27.680Z,3.71
2017-12-15T04:01:27.654Z,3.72
2017-12-15T04:02:27.622Z,3.77
2017-12-15T04:03:27.586Z,3.70
2017-12-15T04:04:27.553Z,3.64
2017-12-15T04:05:27.524Z,3.63
2017-12-15T04:06:27.500Z,3.72
2017-12-15T04:07:27.465Z,3.75
2017-12-15T04:08:27.439Z,3.68
2017-12-15T04:09:27.656Z,3.74
2017-12-15T04:10:27.370Z,3.78
2017-12-15T04:11:27.337Z,3.64
2017-12-15T04:12:27.306Z,3.74
2017-12-15T04:13:27.287Z,3.75
2017-12-15T04:14:27.260Z,3.75
2017-12-15T04:15:27.568Z,3.71
2017-12-15T04:16:27.201Z,3.77
2017-12-15T04:17:27.161Z,3.78
2017-12-15T04:18:27.122Z,3.77
2017-12-15T04:19:27.113Z,3.75
2017-12-15T04:20:27.084Z,3.77
2017-12-15T04:21:27.880Z,3.92
2017-12-15T04:22:27.007Z,3.93
2017-12-15T04:23:26.976Z,3.96
2017-12-15T04:24:26.951Z,3.99
2017-12-15T04:25:26.912Z,4.02
2017-12-15T04:26:26.880Z,4.10
2017-12-15T04:27:26.849Z,4.10
2017-12-15T04:28:26.816Z,4.14
2017-12-15T04:29:26.793Z,4.11
2017-12-15T04:30:26.761Z,4.08
2017-12-15T04:31:26.733Z,4.11
2017-12-15T04:32:26.698Z,4.07
2017-12-15T04:33:26.669Z,4.11
2017-12-15T04:34:26.637Z,4.08
2017-12-15T04:35:26.610Z,4.04
2017-12-15T04:36:26.576Z,4.06
2017-12-15T04:37:26.545Z,4.13
2017-12-15T04:38:26.506Z,4.00
2017-12-15T04:39:26.481Z,3.96
2017-12-15T04:40:26.454Z,4.04
2017-12-15T04:41:26.424Z,3.99
2017-12-15T04:42:26.454Z,4.02
2017-12-15T04:43:26.362Z,3.99
2017-12-15T04:44:26.333Z,4.00
2017-12-15T04:45:26.294Z,3.96
2017-12-15T04:46:26.265Z,4.02
2017-12-15T04:47:26.245Z,4.02
2017-12-15T04:48:26.202Z,4.00
2017-12-15T04:49:26.174Z,4.00
2017-12-15T04:50:26.155Z,4.04
2017-12-15T04:51:26.468Z,3.98
2017-12-15T04:52:26.098Z,4.04
2017-12-15T04:53:26.053Z,4.02
2017-12-15T04:54:26.013Z,4.00
2017-12-15T04:55:25.982Z,4.06
2017-12-15T04:56:25.965Z,3.99
2017-12-15T04:57:25.933Z,4.06
2017-12-15T04:58:25.899Z,4.02
2017-12-15T04:59:25.869Z,3.99
2017-12-15T05:00:25.841Z,3.99
2017-12-15T05:01:25.803Z,4.00
2017-12-15T05:02:25.777Z,3.99
2017-12-15T05:03:25.744Z,3.99
2017-12-15T05:04:25.708Z,4.04
2017-12-15T05:05:25.683Z,3.98
2017-12-15T05:06:25.653Z,4.00
2017-12-15T05:07:25.617Z,3.96
2017-12-15T05:08:25.593Z,3.93
2017-12-15T05:09:25.558Z,3.92
2017-12-15T05:10:25.527Z,3.99
2017-12-15T05:11:25.492Z,3.98
2017-12-15T05:12:25.468Z,3.95
2017-12-15T05:13:25.436Z,3.96
2017-12-15T05:14:25.411Z,3.90
2017-12-15T05:15:25.374Z,3.89
2017-12-15T05:16:25.337Z,3.90
2017-12-15T05:17:25.315Z,3.93
2017-12-15T05:18:25.277Z,3.89
2017-12-15T05:19:25.254Z,3.84
2017-12-15T05:20:25.223Z,3.95
2017-12-15T05:21:25.532Z,3.82
2017-12-15T05:22:25.152Z,3.84
2017-12-15T05:23:25.134Z,3.89
2017-12-15T05:24:25.101Z,3.84
2017-12-15T05:25:25.064Z,3.88
2017-12-15T05:26:25.039Z,3.93
2017-12-15T05:27:25.002Z,3.90
2017-12-15T05:28:24.970Z,3.95
2017-12-15T05:29:24.943Z,3.95
2017-12-15T05:30:24.912Z,3.96
2017-12-15T05:31:24.872Z,3.99
2017-12-15T05:32:24.845Z,3.92
2017-12-15T05:33:25.127Z,3.92
2017-12-15T05:34:24.790Z,3.89
2017-12-15T05:35:24.759Z,3.90
2017-12-15T05:36:24.729Z,3.93
2017-12-15T05:37:24.694Z,3.93
2017-12-15T05:38:24.660Z,3.90
2017-12-15T05:39:24.637Z,3.92
2017-12-15T05:40:24.599Z,3.99
2017-12-15T05:41:24.577Z,3.99
2017-12-15T05:42:24.539Z,4.04
2017-12-15T05:43:24.510Z,4.00
2017-12-15T05:44:24.471Z,3.93
2017-12-15T05:45:24.451Z,3.86
2017-12-15T05:46:24.420Z,3.90
2017-12-15T05:47:24.379Z,3.95
2017-12-15T05:48:24.362Z,3.95
2017-12-15T05:49:24.331Z,3.93
2017-12-15T05:50:24.295Z,3.93
2017-12-15T05:51:24.318Z,3.88
2017-12-15T05:52:24.230Z,3.84
2017-12-15T05:53:24.194Z,3.84
2017-12-15T05:54:24.173Z,3.81
2017-12-15T05:55:24.143Z,3.90
2017-12-15T05:56:24.112Z,3.82
2017-12-15T05:57:24.074Z,3.84
2017-12-15T05:58:24.053Z,3.84
2017-12-15T05:59:24.009Z,3.89
2017-12-15T06:00:23.979Z,3.88
2017-12-15T06:01:23.959Z,3.86
2017-12-15T06:02:23.924Z,3.88
2017-12-15T06:03:23.891Z,3.88
2017-12-15T06:04:23.869Z,3.86
2017-12-15T06:05:23.828Z,3.77
2017-12-15T06:06:23.804Z,3.82
2017-12-15T06:07:23.766Z,3.77
2017-12-15T06:08:24.086Z,3.77
2017-12-15T06:09:23.708Z,3.75
2017-12-15T06:10:23.670Z,3.84
2017-12-15T06:11:23.647Z,3.84
2017-12-15T06:12:23.622Z,3.86
2017-12-15T06:13:23.586Z,3.84
2017-12-15T06:14:23.558Z,3.78
2017-12-15T06:15:23.521Z,3.72
2017-12-15T06:16:23.497Z,3.78
2017-12-15T06:17:23.469Z,3.80
2017-12-15T06:18:23.433Z,3.90
2017-12-15T06:19:23.396Z,3.86
2017-12-15T06:20:23.371Z,3.82
2017-12-15T06:21:23.329Z,3.90
2017-12-15T06:22:23.297Z,3.89
2017-12-15T06:23:23.273Z,3.86
2017-12-15T06:24:23.238Z,3.89
2017-12-15T06:25:23.211Z,3.89
2017-12-15T06:26:23.176Z,3.93
2017-12-15T06:27:23.146Z,3.86
2017-12-15T06:28:23.113Z,3.93
2017-12-15T06:29:23.095Z,3.98
2017-12-15T06:30:23.054Z,3.93
2017-12-15T06:31:23.027Z,3.89
2017-12-15T06:32:22.999Z,3.95
2017-12-15T06:33:22.960Z,3.93
2017-12-15T06:34:22.932Z,3.99
2017-12-15T06:35:22.908Z,3.96
2017-12-15T06:36:23.101Z,3.92
2017-12-15T06:37:22.833Z,4.00
2017-12-15T06:38:22.802Z,3.98
2017-12-15T06:39:22.770Z,3.92
2017-12-15T06:40:22.741Z,3.95
2017-12-15T06:41:22.722Z,4.00
2017-12-15T06:42:22.694Z,4.04
2017-12-15T06:43:22.654Z,3.96
2017-12-15T06:44:22.624Z,3.98
2017-12-15T06:45:22.597Z,4.00
2017-12-15T06:46:22.558Z,4.02
2017-12-15T06:47:22.533Z,3.99
2017-12-15T06:48:22.504Z,4.06
2017-12-15T06:49:22.469Z,4.04
2017-12-15T06:50:22.441Z,3.99
2017-12-15T06:51:22.413Z,4.00
2017-12-15T06:52:22.376Z,4.02
2017-12-15T06:53:22.346Z,4.02
2017-12-15T06:54:22.321Z,3.95
2017-12-15T06:55:22.281Z,3.96
2017-12-15T06:56:22.255Z,3.95
2017-12-15T06:57:22.227Z,3.93
2017-12-15T06:58:22.192Z,3.93
2017-12-15T06:59:22.158Z,3.90
2017-12-15T07:00:22.130Z,3.92
2017-12-15T07:01:22.111Z,3.90
2017-12-15T07:02:22.068Z,3.93
2017-12-15T07:03:22.040Z,3.96
2017-12-15T07:04:22.008Z,3.92
2017-12-15T07:05:21.969Z,3.96
2017-12-15T07:06:21.946Z,3.99
2017-12-15T07:07:21.914Z,4.02
2017-12-15T07:08:22.089Z,4.02
2017-12-15T07:09:21.851Z,4.02
2017-12-15T07:10:21.819Z,3.99
2017-12-15T07:11:21.789Z,3.99
2017-12-15T07:12:21.763Z,3.99
2017-12-15T07:13:21.736Z,4.00
2017-12-15T07:14:21.710Z,4.10
2017-12-15T07:15:21.680Z,4.04
2017-12-15T07:16:21.634Z,4.00
2017-12-15T07:17:21.604Z,4.06
2017-12-15T07:18:21.584Z,3.99
2017-12-15T07:19:21.585Z,4.00
2017-12-15T07:20:21.722Z,4.06
2017-12-15T07:21:21.478Z,3.98
2017-12-15T07:22:21.456Z,4.06
2017-12-15T07:23:21.433Z,3.99
2017-12-15T07:24:21.395Z,3.96
2017-12-15T07:25:21.364Z,3.98
2017-12-15T07:26:21.333Z,4.00
2017-12-15T07:27:21.303Z,4.02
2017-12-15T07:28:21.276Z,3.99
2017-12-15T07:29:21.258Z,3.96
2017-12-15T07:30:21.212Z,3.96
2017-12-15T07:31:21.176Z,3.98
2017-12-15T07:32:21.199Z,3.99
2017-12-15T07:33:21.125Z,3.92
2017-12-15T07:34:21.088Z,3.98
2017-12-15T07:35:21.068Z,3.90
2017-12-15T07:36:21.027Z,3.82
2017-12-15T07:37:20.991Z,3.82
2017-12-15T07:38:20.954Z,3.89
2017-12-15T07:39:20.935Z,3.84
2017-12-15T07:40:20.900Z,3.84
2017-12-15T07:41:20.864Z,3.89
2017-12-15T07:42:20.843Z,3.75
2017-12-15T07:43:20.809Z,3.78
2017-12-15T07:44:20.777Z,3.84
2017-12-15T07:45:20.752Z,3.93
2017-12-15T07:46:20.713Z,3.82
2017-12-15T07:47:20.691Z,3.81
2017-12-15T07:48:20.649Z,3.84
2017-12-15T07:49:20.632Z,3.88
2017-12-15T07:50:20.591Z,3.86
2017-12-15T07:51:20.566Z,3.78
2017-12-15T07:52:20.532Z,3.95
2017-12-15T07:53:20.491Z,3.88
2017-12-15T07:54:20.461Z,3.81
2017-12-15T07:55:20.435Z,3.92
2017-12-15T07:56:20.410Z,3.95
2017-12-15T07:57:20.370Z,3.89
2017-12-15T07:58:20.342Z,3.92
2017-12-15T07:59:20.317Z,3.92
2017-12-15T08:00:20.286Z,3.92
2017-12-15T08:01:20.263Z,3.89
2017-12-15T08:02:20.225Z,3.90
2017-12-15T08:03:20.198Z,3.96
2017-12-15T08:04:20.156Z,3.90
2017-12-15T08:05:20.139Z,3.95
2017-12-15T08:06:20.097Z,3.96
2017-12-15T08:07:20.070Z,3.96
2017-12-15T08:08:20.045Z,3.99
2017-12-15T08:09:19.998Z,3.96
2017-12-15T08:10:19.973Z,3.92
2017-12-15T08:11:19.946Z,3.93
2017-12-15T08:12:19.916Z,3.95
2017-12-15T08:13:19.879Z,3.92
2017-12-15T08:14:19.856Z,3.95
2017-12-15T08:15:19.816Z,3.93
2017-12-15T08:16:19.793Z,3.93
2017-12-15T08:17:19.761Z,3.98
2017-12-15T08:18:19.728Z,4.04
2017-12-15T08:19:19.691Z,3.98
2017-12-15T08:20:19.700Z,3.89
2017-12-15T08:21:19.633Z,3.98
2017-12-15T08:22:19.606Z,4.00
2017-12-15T08:23:19.577Z,4.04
2017-12-15T08:24:19.542Z,4.02
2017-12-15T08:25:19.515Z,4.02
2017-12-15T08:26:19.478Z,4.02
2017-12-15T08:27:19.450Z,3.96
2017-12-15T08:28:19.420Z,3.98
2017-12-15T08:29:19.396Z,4.00
2017-12-15T08:30:19.366Z,4.04
2017-12-15T08:31:19.326Z,4.02
2017-12-15T08:32:19.293Z,4.02
2017-12-15T08:33:19.269Z,4.02
2017-12-15T08:34:19.229Z,4.04
2017-12-15T08:35:19.211Z,4.10
2017-12-15T08:36:19.178Z,4.07
2017-12-15T08:37:19.146Z,4.14
2017-12-15T08:38:19.469Z,4.14
2017-12-15T08:39:19.087Z,4.07
2017-12-15T08:40:19.051Z,4.16
2017-12-15T08:41:19.018Z,4.21
2017-12-15T08:42:18.988Z,4.17
2017-12-15T08:43:18.961Z,4.10
2017-12-15T08:44:18.929Z,4.07
2017-12-15T08:45:18.903Z,4.11
2017-12-15T08:46:18.880Z,4.07
2017-12-15T08:47:18.842Z,4.06
2017-12-15T08:48:18.807Z,3.99
2017-12-15T08:49:18.785Z,3.99
2017-12-15T08:50:18.743Z,3.99
2017-12-15T08:51:18.722Z,4.02
2017-12-15T08:52:18.690Z,3.99
2017-12-15T08:53:18.648Z,3.99
2017-12-15T08:54:18.638Z,4.00
2017-12-15T08:55:18.609Z,4.02
2017-12-15T08:56:18.556Z,4.02
2017-12-15T08:57:18.532Z,3.99
2017-12-15T08:58:18.505Z,4.02
2017-12-15T08:59:18.468Z,3.99
2017-12-15T09:00:18.444Z,3.96
2017-12-15T09:01:18.413Z,4.00
2017-12-15T09:02:18.377Z,3.98
2017-12-15T09:03:18.355Z,4.07
2017-12-15T09:04:18.323Z,4.08
2017-12-15T09:05:18.286Z,4.07
2017-12-15T09:06:18.259Z,4.08
2017-12-15T09:07:18.223Z,4.04
2017-12-15T09:08:18.193Z,4.13
2017-12-15T09:09:18.159Z,4.08
2017-12-15T09:10:18.135Z,4.10
2017-12-15T09:11:18.106Z,4.14
2017-12-15T09:12:18.079Z,4.08
2017-12-15T09:13:18.059Z,4.17
2017-12-15T09:14:18.010Z,4.17
2017-12-15T09:15:17.993Z,4.20
2017-12-15T09:16:17.943Z,4.21
2017-12-15T09:17:17.922Z,4.25
2017-12-15T09:18:17.885Z,4.29
2017-12-15T09:19:17.855Z,4.24
2017-12-15T09:20:17.830Z,4.32
2017-12-15T09:21:17.796Z,4.56
2017-12-15T09:22:17.767Z,4.65
2017-12-15T09:23:17.740Z,4.84
2017-12-15T09:24:17.714Z,4.87
2017-12-15T09:25:17.672Z,4.72
2017-12-15T09:26:17.657Z,4.74
2017-12-15T09:27:17.620Z,4.64
2017-12-15T09:28:17.576Z,4.38
2017-12-15T09:29:17.559Z,4.35
2017-12-15T09:30:17.551Z,4.34
2017-12-15T09:31:17.497Z,4.34
2017-12-15T09:32:17.466Z,4.20
2017-12-15T09:33:17.439Z,4.39
2017-12-15T09:34:17.408Z,4.42
2017-12-15T09:35:17.380Z,4.65
2017-12-15T09:36:17.347Z,4.71
2017-12-15T09:37:17.312Z,4.83
2017-12-15T09:38:17.284Z,4.75
2017-12-15T09:39:17.257Z,4.67
2017-12-15T09:40:17.227Z,4.56
2017-12-15T09:41:17.196Z,4.53
2017-12-15T09:42:17.156Z,4.53
2017-12-15T09:43:17.132Z,4.51
2017-12-15T09:44:17.098Z,4.49
2017-12-15T09:45:17.080Z,4.49
2017-12-15T09:46:17.040Z,4.46
2017-12-15T09:47:17.007Z,4.57
2017-12-15T09:48:16.975Z,4.56
2017-12-15T09:49:17.214Z,4.61
2017-12-15T09:50:16.930Z,4.61
2017-12-15T09:51:16.896Z,4.51
2017-12-15T09:52:16.863Z,4.42
2017-12-15T09:53:16.830Z,4.21
2017-12-15T09:54:16.793Z,4.31
2017-12-15T09:55:16.767Z,4.25
2017-12-15T09:56:16.744Z,4.28
2017-12-15T09:57:16.712Z,4.25
2017-12-15T09:58:16.680Z,4.25
2017-12-15T09:59:16.652Z,4.24
2017-12-15T10:00:16.624Z,4.28
2017-12-15T10:01:16.593Z,4.46
2017-12-15T10:02:16.564Z,4.36
2017-12-15T10:03:16.534Z,4.47
2017-12-15T10:04:16.502Z,4.56
2017-12-15T10:05:16.474Z,4.51
2017-12-15T10:06:16.446Z,4.59
2017-12-15T10:07:16.414Z,4.61
2017-12-15T10:08:16.381Z,4.49
2017-12-15T10:09:16.353Z,4.47
2017-12-15T10:10:16.313Z,4.53
2017-12-15T10:11:16.297Z,4.46
2017-12-15T10:12:16.264Z,4.31
2017-12-15T10:13:16.232Z,4.36
2017-12-15T10:14:16.199Z,4.28
2017-12-15T10:15:16.170Z,4.21
2017-12-15T10:16:16.144Z,4.25
2017-12-15T10:17:16.108Z,4.29
2017-12-15T10:18:16.121Z,4.29
2017-12-15T10:19:16.051Z,4.29
2017-12-15T10:20:16.028Z,4.28
2017-12-15T10:21:15.994Z,4.25
2017-12-15T10:22:15.959Z,4.20
2017-12-15T10:23:15.929Z,4.18
2017-12-15T10:24:15.916Z,4.20
2017-12-15T10:25:15.876Z,4.24
2017-12-15T10:26:15.841Z,4.26
2017-12-15T10:27:15.817Z,4.26
2017-12-15T10:28:15.781Z,4.24
2017-12-15T10:29:15.758Z,4.38
2017-12-15T10:30:15.725Z,4.44
2017-12-15T10:31:15.690Z,4.47
2017-12-15T10:32:15.664Z,4.49
2017-12-15T10:33:15.633Z,4.44
2017-12-15T10:34:15.610Z,4.53
2017-12-15T10:35:15.580Z,4.43
2017-12-15T10:36:15.558Z,4.26
2017-12-15T10:37:15.510Z,4.28
2017-12-15T10:38:15.487Z,4.25
2017-12-15T10:39:15.460Z,4.31
2017-12-15T10:40:15.426Z,4.43
2017-12-15T10:41:15.399Z,4.36
2017-12-15T10:42:15.369Z,4.24
2017-12-15T10:43:15.332Z,4.20
2017-12-15T10:44:15.311Z,4.21
2017-12-15T10:45:15.283Z,4.21
2017-12-15T10:46:15.254Z,4.26
2017-12-15T10:47:15.221Z,4.28
2017-12-15T10:48:15.186Z,4.16
2017-12-15T10:49:15.169Z,4.17
2017-12-15T10:50:15.132Z,4.08
2017-12-15T10:51:15.097Z,4.14
2017-12-15T10:52:15.107Z,4.08
2017-12-15T10:53:15.035Z,4.14
2017-12-15T10:54:15.003Z,4.18
2017-12-15T10:55:14.974Z,4.20
2017-12-15T10:56:14.955Z,4.18
2017-12-15T10:57:14.918Z,4.02
2017-12-15T10:58:14.897Z,4.13
2017-12-15T10:59:14.857Z,4.10
2017-12-15T11:00:14.827Z,4.13
2017-12-15T11:01:14.808Z,4.18
2017-12-15T11:02:14.777Z,4.18
2017-12-15T11:03:14.750Z,4.21
2017-12-15T11:04:14.719Z,4.26
2017-12-15T11:05:14.682Z,4.21
2017-12-15T11:06:14.652Z,4.31
2017-12-15T11:07:14.633Z,4.25
2017-12-15T11:08:14.600Z,4.18
2017-12-15T11:09:14.566Z,4.16
2017-12-15T11:10:14.535Z,4.16
2017-12-15T11:11:14.505Z,4.16
2017-12-15T11:12:14.477Z,4.21
2017-12-15T11:13:14.441Z,4.13
2017-12-15T11:14:14.415Z,4.14
2017-12-15T11:15:14.387Z,4.21
2017-12-15T11:16:14.353Z,4.18
2017-12-15T11:17:14.328Z,4.18
2017-12-15T11:18:14.305Z,4.20
2017-12-15T11:19:14.263Z,4.17
2017-12-15T11:20:14.242Z,4.24
2017-12-15T11:21:14.218Z,4.18
2017-12-15T11:22:14.197Z,4.24
2017-12-15T11:23:14.158Z,4.31
2017-12-15T11:24:14.124Z,4.26
2017-12-15T11:25:14.090Z,4.28
2017-12-15T11:26:14.057Z,4.20
2017-12-15T11:27:14.030Z,4.21
2017-12-15T11:28:13.991Z,4.24
2017-12-15T11:29:13.972Z,4.17
2017-12-15T11:30:13.945Z,4.17
2017-12-15T11:31:13.907Z,4.25
2017-12-15T11:32:13.881Z,4.21
2017-12-15T11:33:13.854Z,4.18
2017-12-15T11:34:13.818Z,4.18
2017-12-15T11:35:13.800Z,4.16
2017-12-15T11:36:13.759Z,4.21
2017-12-15T11:37:13.733Z,4.21
2017-12-15T11:38:13.703Z,4.18
2017-12-15T11:39:13.677Z,4.18
2017-12-15T11:40:13.649Z,4.18
2017-12-15T11:41:13.608Z,4.25
2017-12-15T11:42:13.597Z,4.21
2017-12-15T11:43:13.555Z,4.36
2017-12-15T11:44:13.540Z,4.29
2017-12-15T11:45:13.500Z,4.28
2017-12-15T11:46:13.473Z,4.36
2017-12-15T11:47:13.439Z,4.38
2017-12-15T11:48:13.407Z,4.38
2017-12-15T11:49:13.373Z,4.31
2017-12-15T11:50:13.355Z,4.34
2017-12-15T11:51:13.314Z,4.35
2017-12-15T11:52:13.288Z,4.39
2017-12-15T11:53:13.253Z,4.44
2017-12-15T11:54:13.224Z,4.46
2017-12-15T11:55:13.202Z,4.43
2017-12-15T11:56:13.177Z,4.43
2017-12-15T11:57:13.188Z,4.44
2017-12-15T11:58:13.105Z,4.43
2017-12-15T11:59:13.081Z,4.44
2017-12-15T12:00:13.052Z,4.42
2017-12-15T12:01:13.034Z,4.42
2017-12-15T12:02:12.995Z,4.44
2017-12-15T12:03:12.966Z,4.47
2017-12-15T12:04:12.935Z,4.42
2017-12-15T12:05:12.906Z,4.43
2017-12-15T12:06:12.879Z,4.39
2017-12-15T12:07:12.842Z,4.36
2017-12-15T12:08:12.826Z,4.31
2017-12-15T12:09:12.783Z,4.24
2017-12-15T12:10:12.768Z,4.43
2017-12-15T12:11:12.730Z,4.44
2017-12-15T12:12:12.696Z,4.42
2017-12-15T12:13:12.670Z,4.47
2017-12-15T12:14:12.631Z,4.35
2017-12-15T12:15:12.616Z,4.44
2017-12-15T12:16:12.584Z,4.47
2017-12-15T12:17:12.555Z,4.32
2017-12-15T12:18:12.526Z,4.32
2017-12-15T12:19:12.493Z,4.43
2017-12-15T12:20:12.463Z,4.39
2017-12-15T12:21:12.438Z,4.39
2017-12-15T12:22:12.404Z,4.32
2017-12-15T12:23:12.382Z,4.28
2017-12-15T12:24:12.351Z,4.31
2017-12-15T12:25:12.319Z,4.32
2017-12-15T12:26:12.283Z,4.44
2017-12-15T12:27:12.265Z,4.44
2017-12-15T12:28:12.228Z,4.39
2017-12-15T12:29:12.186Z,4.43
2017-12-15T12:30:12.157Z,4.36
2017-12-15T12:31:12.130Z,4.36
2017-12-15T12:32:12.104Z,4.32
2017-12-15T12:33:12.081Z,4.34
2017-12-15T12:34:12.047Z,4.31
2017-12-15T12:35:12.013Z,4.34
2017-12-15T12:36:11.987Z,4.34
2017-12-15T12:37:11.958Z,4.31
2017-12-15T12:38:12.030Z,4.42
2017-12-15T12:39:11.892Z,4.46
2017-12-15T12:40:11.863Z,4.42
2017-12-15T12:41:11.838Z,4.47
2017-12-15T12:42:11.805Z,4.54
2017-12-15T12:43:11.768Z,4.43
2017-12-15T12:44:11.738Z,4.46
2017-12-15T12:45:11.725Z,4.49
2017-12-15T12:46:11.691Z,4.44
2017-12-15T12:47:11.656Z,4.51
2017-12-15T12:48:11.631Z,4.49
2017-12-15T12:49:11.602Z,4.47
2017-12-15T12:50:11.560Z,4.38
2017-12-15T12:51:11.540Z,4.49
2017-12-15T12:52:11.505Z,4.46
2017-12-15T12:53:11.472Z,4.51
2017-12-15T12:54:11.450Z,4.46
2017-12-15T12:55:11.416Z,4.51
2017-12-15T12:56:11.391Z,4.54
2017-12-15T12:57:11.358Z,4.59
2017-12-15T12:58:11.343Z,4.50
2017-12-15T12:59:11.297Z,4.50
2017-12-15T13:00:11.265Z,4.54
2017-12-15T13:01:11.244Z,4.49
2017-12-15T13:02:11.214Z,4.49
2017-12-15T13:03:11.185Z,4.50
2017-12-15T13:04:11.150Z,4.46
2017-12-15T13:05:11.116Z,4.46
2017-12-15T13:06:11.094Z,4.46
2017-12-15T13:07:11.060Z,4.49
2017-12-15T13:08:11.032Z,4.49
2017-12-15T13:09:10.995Z,4.46
2017-12-15T13:10:10.974Z,4.46
2017-12-15T13:11:10.934Z,4.49
2017-12-15T13:12:10.911Z,4.51
2017-12-15T13:13:10.886Z,4.54
2017-12-15T13:14:10.852Z,4.56
2017-12-15T13:15:10.815Z,4.57
2017-12-15T13:16:10.792Z,4.54
2017-12-15T13:17:10.773Z,4.53
2017-12-15T13:18:10.740Z,4.50